Terminal Aerodrome Forecast
Issued by NWS Buffalo, NY

Home | Current Version | Previous Version | Text Only | Print | Product List | Glossary On
Versions: 1 2 3 4 5 6 7 8 9 10 11 12 13 14 15 16 17 18 19 20 21 22 23 24 25 26 27 28 29 30
213
FTUS41 KBUF 112339
TAFART
TAF
KART 112339Z 1200/1224 30006KT P6SM SCT050
     FM120900 00000KT 3SM -SN BKN035
     FM121400 20013KT 1/2SM SN OVC007
     FM121600 22016G24KT 1/4SM +SN OVC003
     FM122300 21015KT 1/4SM +SN OVC007=

USA.gov is the U.S. government's official web portal to all federal, state and local government web resources and services.